Time;durP1;ratioP1;P1;durP2;ratioP2;P2;SDS_P1;SDS_P2;PMS_P1;PMS_P2;Temp;Humidity;BMP_temperature;BMP_pressure;BME280_temperature;BME280_humidity;BME280_pressure;Samples;Min_cycle;Max_cycle;Signal;HPM_P1;HPM_P2
2022/06/07 00:02:13;;;;;;;;;;;21.10;62.20;;;;;;20886992;28;19913;-78
2022/06/07 00:12:13;;;;;;;;;;;21.10;62.20;;;;;;20869433;28;19925;-78
2022/06/07 00:22:14;;;;;;;;;;;21.10;62.10;;;;;;20886420;28;19913;-79
2022/06/07 00:32:15;;;;;;;;;;;21.10;62.10;;;;;;20908809;28;19974;-78
2022/06/07 00:42:15;;;;;;;;;;;21.00;62.10;;;;;;20902684;28;19912;-78
2022/06/07 00:52:16;;;;;;;;;;;21.00;62.10;;;;;;20902636;28;20446;-79
2022/06/07 01:02:18;;;;;;;;;;;21.00;62.10;;;;;;20888799;28;19912;-78
2022/06/07 01:12:18;;;;;;;;;;;21.00;62.10;;;;;;20897537;28;20563;-78
2022/06/07 01:22:19;;;;;;;;;;;21.00;62.10;;;;;;20900563;28;19971;-77
2022/06/07 01:32:21;;;;;;;;;;;21.10;62.20;;;;;;20876042;28;19921;-78
2022/06/07 01:42:22;;;;;;;;;;;20.90;62.10;;;;;;20897561;28;20413;-78
2022/06/07 01:52:24;;;;;;;;;;;20.90;62.10;;;;;;20881241;28;19920;-78
2022/06/07 02:02:28;;;;;;;;;;;20.90;62.10;;;;;;20897737;28;19925;-78
2022/06/07 02:12:30;;;;;;;;;;;20.90;62.10;;;;;;20882576;28;19923;-77
2022/06/07 02:22:30;;;;;;;;;;;20.90;62.10;;;;;;20911852;28;19943;-78
2022/06/07 02:32:31;;;;;;;;;;;20.90;62.10;;;;;;20895146;28;19921;-78
2022/06/07 02:42:32;;;;;;;;;;;20.80;62.00;;;;;;20910792;28;19920;-77
2022/06/07 02:52:33;;;;;;;;;;;20.80;62.00;;;;;;20909078;28;20023;-79
2022/06/07 03:02:43;;;;;;;;;;;20.80;62.00;;;;;;20876418;28;19920;-78
2022/06/07 03:12:44;;;;;;;;;;;20.80;62.30;;;;;;20879875;28;20033;-78
2022/06/07 03:22:50;;;;;;;;;;;20.80;62.00;;;;;;20891351;28;20003;-78
2022/06/07 03:32:51;;;;;;;;;;;20.70;62.50;;;;;;20888860;28;19927;-78
2022/06/07 03:42:53;;;;;;;;;;;20.70;61.90;;;;;;20873046;28;20021;-78
2022/06/07 03:52:53;;;;;;;;;;;20.60;61.80;;;;;;20905781;28;19956;-77
2022/06/07 04:02:55;;;;;;;;;;;20.70;61.80;;;;;;20903742;28;19966;-78
2022/06/07 04:12:55;;;;;;;;;;;20.70;61.80;;;;;;20903439;28;19960;-77
2022/06/07 04:22:58;;;;;;;;;;;20.70;61.80;;;;;;20886605;28;20420;-78
2022/06/07 04:32:59;;;;;;;;;;;20.70;61.70;;;;;;20902646;28;19921;-78
2022/06/07 04:43:00;;;;;;;;;;;20.70;61.70;;;;;;20901615;28;20288;-77
2022/06/07 04:53:05;;;;;;;;;;;20.70;61.70;;;;;;20875433;28;19921;-79
2022/06/07 05:03:05;;;;;;;;;;;20.70;61.70;;;;;;20875354;28;19982;-79
2022/06/07 05:13:09;;;;;;;;;;;20.60;61.50;;;;;;20890062;28;19923;-79
2022/06/07 05:23:13;;;;;;;;;;;20.70;61.60;;;;;;20915885;28;20540;-77
2022/06/07 05:33:18;;;;;;;;;;;20.70;61.50;;;;;;20902775;28;19925;-78
2022/06/07 05:43:24;;;;;;;;;;;20.70;61.50;;;;;;20886688;28;19916;-77
2022/06/07 05:53:28;;;;;;;;;;;20.80;61.50;;;;;;20901577;28;19951;-79
2022/06/07 06:03:29;;;;;;;;;;;20.80;61.60;;;;;;20918084;28;20461;-79
2022/06/07 06:13:30;;;;;;;;;;;20.80;62.20;;;;;;20921525;28;19917;-85
2022/06/07 06:23:32;;;;;;;;;;;20.90;61.50;;;;;;20869967;28;19917;-82
2022/06/07 06:33:37;;;;;;;;;;;20.80;61.30;;;;;;20895242;28;19920;-81
2022/06/07 06:43:38;;;;;;;;;;;20.90;61.30;;;;;;20885421;28;19916;-78
2022/06/07 06:53:57;;;;;;;;;;;20.90;61.20;;;;;;20819428;28;19921;-83
2022/06/07 07:04:06;;;;;;;;;;;20.90;61.00;;;;;;20864097;28;19917;-77
2022/06/07 07:14:08;;;;;;;;;;;20.90;60.80;;;;;;20890476;28;20031;-80
2022/06/07 07:34:21;;;;;;;;;;;21.00;60.70;;;;;;20984842;28;20357;-85
2022/06/07 07:44:24;;;;;;;;;;;21.00;60.60;;;;;;20972335;28;19933;-85
2022/06/07 07:54:31;;;;;;;;;;;21.00;60.60;;;;;;20986734;28;21471;-85
2022/06/07 08:04:35;;;;;;;;;;;21.10;60.20;;;;;;20978168;28;20342;-79
2022/06/07 08:14:36;;;;;;;;;;;21.00;60.00;;;;;;21017896;28;19916;-83
2022/06/07 08:24:37;;;;;;;;;;;21.10;59.90;;;;;;20984762;28;20469;-83
2022/06/07 08:45:01;;;;;;;;;;;21.10;59.60;;;;;;21017038;28;19923;-83
2022/06/07 08:55:08;;;;;;;;;;;21.10;59.30;;;;;;20987009;28;19954;-80
2022/06/07 09:05:12;;;;;;;;;;;21.10;59.00;;;;;;20990689;28;19924;-82
2022/06/07 09:15:14;;;;;;;;;;;21.00;58.80;;;;;;20979767;28;19923;-84
2022/06/07 09:25:16;;;;;;;;;;;21.10;58.90;;;;;;20988536;28;19959;-80
2022/06/07 09:35:21;;;;;;;;;;;21.10;58.90;;;;;;20976717;28;19928;-75
2022/06/07 09:45:29;;;;;;;;;;;21.10;58.90;;;;;;21011595;28;20008;-86
2022/06/07 09:55:32;;;;;;;;;;;21.10;58.90;;;;;;20994847;28;19923;-79
2022/06/07 10:05:40;;;;;;;;;;;21.20;58.70;;;;;;21018449;28;19923;-84
2022/06/07 10:15:41;;;;;;;;;;;21.10;58.60;;;;;;21001671;28;19924;-78
2022/06/07 10:26:00;;;;;;;;;;;21.10;58.40;;;;;;21046300;28;19920;-78
2022/06/07 10:36:08;;;;;;;;;;;21.20;58.20;;;;;;21000597;28;20022;-74
2022/06/07 10:46:10;;;;;;;;;;;21.20;57.90;;;;;;20973562;28;19923;-79
2022/06/07 10:56:14;;;;;;;;;;;21.20;58.00;;;;;;20999504;28;19927;-79
2022/06/07 11:17:15;;;;;;;;;;;21.20;57.50;;;;;;21010926;28;19959;-76
2022/06/07 11:27:17;;;;;;;;;;;21.20;57.50;;;;;;21004541;28;19920;-76
2022/06/07 11:37:18;;;;;;;;;;;21.20;57.40;;;;;;20960149;28;19913;-84
2022/06/07 11:47:20;;;;;;;;;;;21.20;57.00;;;;;;20974945;28;20416;-85
2022/06/07 11:57:28;;;;;;;;;;;21.20;56.80;;;;;;21020975;28;19916;-84
2022/06/07 12:07:36;;;;;;;;;;;21.20;56.30;;;;;;21022112;28;19916;-85
2022/06/07 12:17:36;;;;;;;;;;;21.20;55.80;;;;;;21012774;28;19923;-84
2022/06/07 12:27:44;;;;;;;;;;;21.30;56.00;;;;;;21006536;28;19921;-78
2022/06/07 12:37:53;;;;;;;;;;;21.20;55.80;;;;;;20986499;28;19920;-76
2022/06/07 12:47:54;;;;;;;;;;;21.20;56.00;;;;;;21044504;28;20366;-80
2022/06/07 12:58:01;;;;;;;;;;;21.20;56.30;;;;;;20983994;28;20409;-81
2022/06/07 13:08:02;;;;;;;;;;;21.30;56.40;;;;;;21014282;28;19916;-79
2022/06/07 13:18:17;;;;;;;;;;;21.30;56.50;;;;;;20995829;28;20366;-79
2022/06/07 13:28:19;;;;;;;;;;;21.30;56.20;;;;;;21021176;28;20412;-80
2022/06/07 13:38:27;;;;;;;;;;;21.30;56.20;;;;;;20995529;28;19915;-82
2022/06/07 13:53:21;;;;;;;;;;;21.40;56.50;;;;;;21025230;28;19916;-80
2022/06/07 13:58:52;;;;;;;;;;;21.50;56.80;;;;;;20998541;28;19924;-82
2022/06/07 14:08:53;;;;;;;;;;;21.60;57.00;;;;;;20989850;28;19963;-81
2022/06/07 14:18:54;;;;;;;;;;;21.70;57.30;;;;;;20981961;28;20294;-84
2022/06/07 14:28:54;;;;;;;;;;;21.70;57.20;;;;;;20981422;28;19926;-84
2022/06/07 14:38:55;;;;;;;;;;;21.80;56.80;;;;;;21003048;28;19916;-87
2022/06/07 14:49:04;;;;;;;;;;;21.70;56.70;;;;;;21018926;28;19932;-86
2022/06/07 14:59:05;;;;;;;;;;;21.60;56.70;;;;;;21008099;28;19951;-85
2022/06/07 15:09:05;;;;;;;;;;;21.60;56.90;;;;;;20994057;28;20374;-78
2022/06/07 15:19:06;;;;;;;;;;;21.60;57.20;;;;;;20986498;28;19917;-81
2022/06/07 15:29:08;;;;;;;;;;;21.50;57.30;;;;;;20977732;28;19921;-84
2022/06/07 15:39:09;;;;;;;;;;;21.50;57.40;;;;;;20982262;28;19917;-77
2022/06/07 15:49:10;;;;;;;;;;;21.40;57.10;;;;;;21009596;28;19916;-79
2022/06/07 15:59:10;;;;;;;;;;;21.50;57.10;;;;;;21009027;28;19959;-78
2022/06/07 16:09:11;;;;;;;;;;;21.50;57.20;;;;;;21009601;28;19923;-78
2022/06/07 16:19:12;;;;;;;;;;;21.50;57.50;;;;;;20972675;28;20441;-78
2022/06/07 16:39:32;;;;;;;;;;;21.50;57.70;;;;;;21019388;28;20004;-80
2022/06/07 16:49:35;;;;;;;;;;;21.60;57.70;;;;;;21012738;28;19985;-79
2022/06/07 16:59:35;;;;;;;;;;;21.70;57.50;;;;;;20981837;28;19923;-78
2022/06/07 17:09:38;;;;;;;;;;;21.70;57.50;;;;;;21038535;28;19917;-79
2022/06/07 17:19:40;;;;;;;;;;;21.80;57.60;;;;;;20990288;28;19921;-79
2022/06/07 17:29:40;;;;;;;;;;;21.80;57.50;;;;;;20982983;28;19920;-76
2022/06/07 17:39:41;;;;;;;;;;;21.80;57.60;;;;;;20992830;28;19966;-78
2022/06/07 17:49:42;;;;;;;;;;;21.80;57.60;;;;;;21005181;28;20255;-76
2022/06/07 17:59:43;;;;;;;;;;;21.80;57.70;;;;;;20987039;28;20011;-77
2022/06/07 18:09:44;;;;;;;;;;;21.80;57.70;;;;;;20990393;28;19949;-77
2022/06/07 18:19:45;;;;;;;;;;;21.80;57.70;;;;;;21014983;28;20305;-79
2022/06/07 18:29:45;;;;;;;;;;;21.80;57.80;;;;;;20959821;28;20025;-77
2022/06/07 18:39:46;;;;;;;;;;;21.70;58.00;;;;;;20981649;28;19916;-77
2022/06/07 18:49:46;;;;;;;;;;;21.70;58.10;;;;;;20985833;28;19923;-77
2022/06/07 18:59:47;;;;;;;;;;;21.60;58.10;;;;;;20987469;28;19916;-76
2022/06/07 19:09:52;;;;;;;;;;;21.60;58.20;;;;;;21002936;28;19916;-77
2022/06/07 19:19:53;;;;;;;;;;;21.50;58.30;;;;;;20978485;28;19954;-77
2022/06/07 19:29:53;;;;;;;;;;;21.50;58.50;;;;;;20980614;28;19920;-77
2022/06/07 19:39:54;;;;;;;;;;;21.50;58.70;;;;;;20976968;28;19919;-77
2022/06/07 19:49:54;;;;;;;;;;;21.50;58.80;;;;;;20992064;28;19943;-77
2022/06/07 19:59:55;;;;;;;;;;;21.50;58.90;;;;;;20977049;28;19916;-77
2022/06/07 20:09:55;;;;;;;;;;;21.40;58.90;;;;;;20997722;28;20393;-77
2022/06/07 20:19:56;;;;;;;;;;;21.40;59.00;;;;;;21024672;28;19927;-76
2022/06/07 20:29:56;;;;;;;;;;;21.40;59.10;;;;;;20967630;28;19950;-77
2022/06/07 20:39:57;;;;;;;;;;;21.40;59.20;;;;;;20992150;28;19989;-76
2022/06/07 20:49:57;;;;;;;;;;;21.30;59.30;;;;;;20975778;28;19916;-76
2022/06/07 20:59:58;;;;;;;;;;;21.30;59.40;;;;;;21005953;28;19962;-76
2022/06/07 21:09:58;;;;;;;;;;;21.30;59.40;;;;;;20993143;28;20575;-76
2022/06/07 21:19:59;;;;;;;;;;;21.30;59.50;;;;;;21015698;28;19985;-76
2022/06/07 21:29:59;;;;;;;;;;;21.30;59.60;;;;;;20998315;28;19928;-78
2022/06/07 21:40:00;;;;;;;;;;;21.30;59.60;;;;;;20989945;28;20411;-76
2022/06/07 21:50:01;;;;;;;;;;;21.20;59.60;;;;;;21022811;28;19916;-76
2022/06/07 22:00:03;;;;;;;;;;;21.20;59.70;;;;;;21021355;28;20386;-77
2022/06/07 22:10:04;;;;;;;;;;;21.20;59.70;;;;;;21006575;28;19924;-76
2022/06/07 22:20:05;;;;;;;;;;;21.20;59.80;;;;;;21014783;28;19917;-77
2022/06/07 22:30:06;;;;;;;;;;;21.20;59.80;;;;;;21012836;28;19928;-76
2022/06/07 22:40:07;;;;;;;;;;;21.20;59.90;;;;;;20998973;28;20026;-76
2022/06/07 22:50:09;;;;;;;;;;;21.20;59.90;;;;;;20992981;28;19920;-76
2022/06/07 23:00:11;;;;;;;;;;;21.20;60.00;;;;;;21016882;28;20320;-75
2022/06/07 23:10:12;;;;;;;;;;;21.10;60.00;;;;;;21001694;28;20020;-75
2022/06/07 23:20:12;;;;;;;;;;;21.10;60.10;;;;;;21009737;28;19917;-76
2022/06/07 23:30:13;;;;;;;;;;;21.10;60.10;;;;;;20968324;28;19926;-77
2022/06/07 23:40:15;;;;;;;;;;;21.10;60.20;;;;;;21013974;28;19959;-76
2022/06/07 23:50:24;;;;;;;;;;;21.10;60.20;;;;;;20997353;28;19916;-76
